Time;durP1;ratioP1;P1;durP2;ratioP2;P2;SDS_P1;SDS_P2;PMS_P1;PMS_P2;Temp;Humidity;BMP_temperature;BMP_pressure;BME280_temperature;BME280_humidity;BME280_pressure;Samples;Min_cycle;Max_cycle;Signal;HPM_P1;HPM_P2
2024/03/10 00:00:14;;;;;;;22.60;19.27;;;6.40;1.00;;;;;;5116919;27;20238;-74
2024/03/10 00:02:43;;;;;;;23.20;19.52;;;6.40;1.00;;;;;;5115988;27;20766;-73
2024/03/10 00:05:13;;;;;;;24.80;19.20;;;6.30;1.00;;;;;;5111868;27;20332;-74
2024/03/10 00:07:40;;;;;;;25.48;20.25;;;6.30;1.00;;;;;;5103029;27;20243;-74
2024/03/10 00:10:09;;;;;;;20.90;18.37;;;6.30;1.00;;;;;;5110477;27;20302;-74
2024/03/10 00:12:36;;;;;;;22.00;19.13;;;6.40;1.00;;;;;;5095710;27;21081;-74
2024/03/10 00:15:03;;;;;;;24.75;19.77;;;6.30;1.00;;;;;;5091098;28;20253;-76
2024/03/10 00:17:32;;;;;;;24.42;19.30;;;6.30;1.00;;;;;;5097842;27;20236;-73
2024/03/10 00:19:59;;;;;;;22.52;19.13;;;6.30;1.00;;;;;;5092577;28;20241;-75
2024/03/10 00:22:27;;;;;;;22.53;18.40;;;6.30;1.00;;;;;;5095586;28;20237;-74
2024/03/10 00:24:54;;;;;;;22.23;18.80;;;6.30;1.00;;;;;;5091788;28;20536;-74
2024/03/10 00:27:21;;;;;;;23.98;19.05;;;6.20;1.00;;;;;;5095519;27;20245;-74
2024/03/10 00:29:48;;;;;;;24.15;20.05;;;6.20;1.00;;;;;;5093100;28;20239;-75
2024/03/10 00:32:18;;;;;;;24.52;18.08;;;6.20;1.00;;;;;;5090623;28;20359;-74
2024/03/10 00:34:44;;;;;;;23.70;20.73;;;6.20;1.00;;;;;;5111571;27;20243;-74
2024/03/10 00:37:11;;;;;;;24.60;19.40;;;6.20;1.00;;;;;;5111003;27;20331;-72
2024/03/10 00:39:40;;;;;;;24.23;19.30;;;6.20;1.00;;;;;;5109940;27;20336;-77
2024/03/10 00:42:07;;;;;;;22.75;19.17;;;6.10;1.00;;;;;;5108674;27;20605;-74
2024/03/10 00:44:33;;;;;;;24.63;19.38;;;6.10;1.00;;;;;;5109893;27;20237;-74
2024/03/10 00:47:01;;;;;;;22.38;18.65;;;6.10;1.00;;;;;;5111190;27;20296;-74
2024/03/10 00:49:27;;;;;;;24.13;20.13;;;6.10;1.00;;;;;;5111068;27;20998;-74
2024/03/10 00:51:54;;;;;;;22.88;19.25;;;6.10;1.00;;;;;;5111176;27;20317;-74
2024/03/10 00:54:21;;;;;;;22.48;19.02;;;6.10;1.00;;;;;;5111547;27;20279;-74
2024/03/10 00:56:50;;;;;;;24.75;18.25;;;6.10;1.00;;;;;;5108622;27;20795;-74
2024/03/10 00:59:17;;;;;;;22.77;19.08;;;6.00;1.00;;;;;;5109426;27;20726;-72
2024/03/10 01:01:44;;;;;;;23.25;19.10;;;6.00;1.00;;;;;;5112705;27;20244;-75
2024/03/10 01:04:11;;;;;;;24.15;19.17;;;6.00;1.00;;;;;;5109936;27;20244;-75
2024/03/10 01:06:38;;;;;;;22.88;18.70;;;6.00;1.00;;;;;;5104058;27;20239;-74
2024/03/10 01:09:08;;;;;;;25.63;19.67;;;6.00;1.00;;;;;;5111296;27;20294;-74
2024/03/10 01:11:37;;;;;;;26.67;21.27;;;6.00;1.00;;;;;;5109208;27;21028;-73
2024/03/10 01:14:07;;;;;;;24.05;19.08;;;6.00;1.00;;;;;;5111138;27;20316;-75
2024/03/10 01:16:34;;;;;;;21.48;17.80;;;5.90;1.00;;;;;;5110599;27;20347;-74
2024/03/10 01:19:01;;;;;;;22.13;17.83;;;5.90;1.00;;;;;;5089397;28;20233;-75
2024/03/10 01:21:28;;;;;;;23.42;19.05;;;5.90;1.00;;;;;;5095420;27;20305;-74
2024/03/10 01:23:56;;;;;;;21.08;18.48;;;5.90;1.00;;;;;;5091535;27;20250;-74
2024/03/10 01:26:23;;;;;;;21.38;18.30;;;5.90;1.00;;;;;;5091931;27;20341;-75
2024/03/10 01:28:50;;;;;;;26.00;20.20;;;5.90;1.00;;;;;;5097921;27;20237;-77
2024/03/10 01:31:18;;;;;;;25.13;19.63;;;5.80;1.00;;;;;;5090027;28;20247;-75
2024/03/10 01:33:48;;;;;;;24.02;18.90;;;5.80;1.00;;;;;;5074399;28;20270;-74
2024/03/10 01:36:15;;;;;;;23.65;19.40;;;5.80;1.00;;;;;;5088067;28;20236;-75
2024/03/10 01:38:42;;;;;;;28.30;19.97;;;5.80;1.00;;;;;;5088523;27;20245;-74
2024/03/10 01:41:12;;;;;;;27.80;19.75;;;5.70;1.00;;;;;;5088704;28;20672;-73
2024/03/10 01:43:40;;;;;;;25.10;20.88;;;5.70;1.00;;;;;;5088524;28;20233;-73
2024/03/10 01:46:09;;;;;;;28.20;20.88;;;5.70;1.00;;;;;;5091153;28;20275;-71
2024/03/10 01:48:39;;;;;;;26.30;20.20;;;5.70;1.00;;;;;;5087910;28;20246;-74
2024/03/10 01:51:07;;;;;;;23.70;20.25;;;5.70;1.00;;;;;;5089235;28;20315;-73
2024/03/10 01:53:35;;;;;;;24.00;19.42;;;5.60;1.00;;;;;;5086896;28;20291;-75
2024/03/10 01:56:04;;;;;;;28.52;21.63;;;5.70;1.00;;;;;;5088324;28;20266;-74
2024/03/10 01:58:32;;;;;;;25.02;20.20;;;5.60;1.00;;;;;;5079948;27;20311;-73
2024/03/10 02:01:03;;;;;;;25.67;19.50;;;5.60;1.00;;;;;;5089330;27;20327;-76
2024/03/10 02:03:30;;;;;;;27.33;20.35;;;5.60;1.00;;;;;;5086520;28;20245;-73
2024/03/10 02:05:58;;;;;;;25.63;19.77;;;5.60;1.00;;;;;;5087685;28;21818;-74
2024/03/10 02:08:26;;;;;;;26.23;21.25;;;5.50;1.00;;;;;;5092564;27;20249;-72
2024/03/10 02:10:53;;;;;;;28.27;21.40;;;5.50;1.00;;;;;;5111649;27;21135;-74
2024/03/10 02:13:21;;;;;;;27.75;21.80;;;5.50;1.00;;;;;;5094635;27;20239;-74
2024/03/10 02:16:00;;;;;;;31.10;22.85;;;5.50;1.00;;;;;;5088512;28;20239;-73
2024/03/10 02:18:28;;;;;;;26.70;22.10;;;5.40;1.00;;;;;;5087539;28;20228;-73
2024/03/10 02:20:56;;;;;;;27.75;22.50;;;5.40;1.00;;;;;;5089671;28;20330;-73
2024/03/10 02:23:27;;;;;;;30.83;23.17;;;5.40;1.00;;;;;;5101868;27;20674;-72
2024/03/10 02:25:58;;;;;;;29.10;22.70;;;5.40;1.00;;;;;;5087116;28;20728;-75
2024/03/10 02:28:34;;;;;;;30.98;22.98;;;5.40;1.00;;;;;;5108938;27;20242;-73
2024/03/10 02:47:12;;;;;;;30.75;24.35;;;5.40;1.00;;;;;;5087953;28;20691;-74
2024/03/10 02:47:38;;;;;;;29.58;23.67;;;5.20;1.00;;;;;;5110798;27;20298;-73
2024/03/10 02:50:06;;;;;;;35.05;24.23;;;5.20;1.00;;;;;;5109040;27;20943;-74
2024/03/10 02:52:36;;;;;;;33.60;24.38;;;5.20;1.00;;;;;;5108083;27;20315;-74
2024/03/10 02:55:03;;;;;;;32.20;25.08;;;5.20;1.00;;;;;;5108907;27;20267;-75
2024/03/10 02:57:33;;;;;;;29.40;23.63;;;5.10;1.00;;;;;;5108278;27;20357;-73
2024/03/10 03:00:00;;;;;;;31.42;24.95;;;5.10;1.00;;;;;;5107294;27;21019;-75
2024/03/10 03:02:29;;;;;;;32.00;24.55;;;5.10;1.00;;;;;;5108128;27;20285;-76
2024/03/10 03:04:56;;;;;;;30.65;24.73;;;5.10;1.00;;;;;;5085969;28;20241;-74
2024/03/10 03:07:23;;;;;;;34.80;26.00;;;5.00;1.00;;;;;;5087286;28;21215;-74
2024/03/10 03:09:50;;;;;;;39.20;27.38;;;5.00;1.00;;;;;;5099555;27;20242;-74
2024/03/10 03:12:17;;;;;;;36.30;25.45;;;5.00;1.00;;;;;;5113909;27;20256;-75
2024/03/10 03:14:46;;;;;;;34.97;26.58;;;5.00;1.00;;;;;;5108107;27;20232;-74
2024/03/10 03:17:12;;;;;;;33.45;26.48;;;5.00;1.00;;;;;;5111190;27;20238;-74
2024/03/10 03:19:40;;;;;;;31.92;23.58;;;5.00;1.00;;;;;;5114465;27;20231;-74
2024/03/10 03:22:07;;;;;;;40.78;27.27;;;5.00;1.00;;;;;;5090622;27;20743;-74
2024/03/10 03:24:34;;;;;;;37.65;27.83;;;4.90;1.00;;;;;;5088847;27;20240;-74
2024/03/10 03:27:04;;;;;;;32.42;26.75;;;4.90;1.00;;;;;;5087163;28;21099;-73
2024/03/10 03:29:31;;;;;;;34.00;28.05;;;4.80;1.00;;;;;;5088616;28;20250;-76
2024/03/10 03:31:59;;;;;;;34.97;27.40;;;4.80;1.00;;;;;;5086600;28;21163;-78
2024/03/10 03:34:26;;;;;;;34.35;26.40;;;4.70;1.00;;;;;;5086376;28;20327;-78
2024/03/10 03:36:54;;;;;;;37.22;28.38;;;4.70;1.00;;;;;;5083191;27;20237;-77
2024/03/10 03:39:20;;;;;;;35.70;28.52;;;4.70;1.00;;;;;;5085375;28;20232;-78
2024/03/10 03:41:48;;;;;;;35.80;27.17;;;4.70;1.00;;;;;;5090420;28;21110;-78
2024/03/10 03:44:15;;;;;;;35.75;27.17;;;4.70;1.00;;;;;;5088243;28;20275;-78
2024/03/10 03:46:42;;;;;;;37.17;27.88;;;4.70;1.00;;;;;;5088408;28;20318;-77
2024/03/10 03:49:10;;;;;;;33.15;27.52;;;4.60;1.00;;;;;;5086301;28;20333;-76
2024/03/10 03:51:37;;;;;;;36.50;27.52;;;4.60;1.00;;;;;;5086434;28;20713;-75
2024/03/10 03:54:05;;;;;;;34.78;27.25;;;4.60;1.00;;;;;;5085903;28;20247;-74
2024/03/10 03:56:32;;;;;;;35.60;27.02;;;4.60;1.00;;;;;;5086407;28;20796;-76
2024/03/10 03:59:01;;;;;;;38.90;29.20;;;4.60;1.00;;;;;;5088639;28;20374;-78
2024/03/10 04:01:28;;;;;;;38.75;28.80;;;4.60;1.00;;;;;;5087893;28;20309;-77
2024/03/10 04:03:55;;;;;;;36.35;28.48;;;4.60;1.00;;;;;;5096535;27;20244;-76
2024/03/10 04:06:24;;;;;;;42.38;29.30;;;4.60;1.00;;;;;;5099656;27;20662;-75
2024/03/10 04:08:53;;;;;;;39.25;28.35;;;4.60;1.00;;;;;;5089404;27;21101;-76
2024/03/10 04:11:21;;;;;;;40.05;28.45;;;4.60;1.00;;;;;;5103799;27;20270;-76
2024/03/10 04:13:48;;;;;;;41.00;29.80;;;4.50;1.00;;;;;;5107208;27;20232;-74
2024/03/10 04:16:17;;;;;;;37.70;28.35;;;4.50;1.00;;;;;;5111872;27;20804;-77
2024/03/10 04:18:44;;;;;;;36.25;28.45;;;4.50;1.00;;;;;;5098103;27;20243;-76
2024/03/10 04:21:12;;;;;;;42.42;28.83;;;4.50;1.00;;;;;;5107611;27;21558;-76
2024/03/10 04:23:41;;;;;;;39.38;29.73;;;4.50;1.00;;;;;;5108967;27;20711;-78
2024/03/10 04:26:09;;;;;;;41.92;31.92;;;4.50;1.00;;;;;;5110288;27;20253;-77
2024/03/10 04:28:36;;;;;;;39.00;29.23;;;4.40;1.00;;;;;;5108250;27;20231;-76
2024/03/10 04:31:05;;;;;;;40.95;30.70;;;4.40;1.00;;;;;;5110958;27;20291;-77
2024/03/10 04:33:34;;;;;;;38.30;27.65;;;4.40;1.00;;;;;;5100831;27;20303;-77
2024/03/10 04:36:02;;;;;;;40.55;29.20;;;4.40;1.00;;;;;;5108040;27;20325;-77
2024/03/10 04:38:29;;;;;;;39.85;30.88;;;4.40;1.00;;;;;;5095374;27;20247;-80
2024/03/10 04:40:57;;;;;;;39.75;29.83;;;4.40;1.00;;;;;;5088576;28;20236;-79
2024/03/10 04:43:24;;;;;;;37.17;29.52;;;4.30;1.00;;;;;;5088445;28;20708;-78
2024/03/10 04:45:53;;;;;;;42.33;32.30;;;4.40;1.00;;;;;;5092974;27;20267;-76
2024/03/10 04:48:20;;;;;;;37.88;28.80;;;4.40;1.00;;;;;;5096961;27;20264;-77
2024/03/10 04:50:48;;;;;;;41.80;30.55;;;4.40;1.00;;;;;;5087980;28;20240;-78
2024/03/10 04:53:15;;;;;;;41.50;30.02;;;4.40;1.00;;;;;;5089148;28;20240;-78
2024/03/10 04:55:43;;;;;;;39.25;30.20;;;4.40;1.00;;;;;;5084884;28;20695;-79
2024/03/10 04:58:12;;;;;;;44.10;31.45;;;4.40;1.00;;;;;;5089779;28;20244;-77
2024/03/10 05:00:39;;;;;;;50.33;31.92;;;4.40;1.00;;;;;;5087188;28;20260;-75
2024/03/10 05:03:06;;;;;;;40.40;29.70;;;4.40;1.00;;;;;;5085659;28;20431;-77
2024/03/10 05:05:33;;;;;;;41.20;30.05;;;4.40;1.00;;;;;;5080166;28;20232;-79
2024/03/10 05:08:00;;;;;;;37.92;28.38;;;4.40;1.00;;;;;;5083204;28;20240;-76
2024/03/10 05:10:27;;;;;;;41.58;29.60;;;4.40;1.00;;;;;;5089054;28;20336;-78
2024/03/10 05:12:54;;;;;;;42.20;30.38;;;4.40;1.00;;;;;;5089380;28;20261;-78
2024/03/10 05:15:23;;;;;;;42.17;30.17;;;4.40;1.00;;;;;;5087903;28;20314;-79
2024/03/10 05:17:50;;;;;;;41.20;31.75;;;4.30;1.00;;;;;;5089596;28;20403;-78
2024/03/10 05:20:17;;;;;;;42.92;31.00;;;4.30;1.00;;;;;;5089024;28;20236;-78
2024/03/10 05:22:44;;;;;;;42.70;32.10;;;4.30;1.00;;;;;;5086118;28;20564;-77
2024/03/10 05:25:13;;;;;;;45.22;32.40;;;4.20;1.00;;;;;;5091109;27;20242;-76
2024/03/10 05:27:41;;;;;;;40.85;29.02;;;4.20;1.00;;;;;;5089981;28;20236;-78
2024/03/10 05:30:09;;;;;;;39.58;29.63;;;4.20;1.00;;;;;;5089122;28;20263;-77
2024/03/10 05:32:38;;;;;;;40.22;29.45;;;4.20;1.00;;;;;;5093327;27;20243;-77
2024/03/10 05:35:05;;;;;;;42.75;30.60;;;4.20;1.00;;;;;;5100543;27;20293;-79
2024/03/10 05:37:32;;;;;;;41.88;31.88;;;4.20;1.00;;;;;;5091503;28;20727;-77
2024/03/10 05:40:00;;;;;;;38.17;29.65;;;4.20;1.00;;;;;;5090812;27;20361;-78
2024/03/10 05:42:28;;;;;;;44.30;30.92;;;4.20;1.00;;;;;;5097690;27;20264;-79
2024/03/10 05:44:55;;;;;;;40.35;30.27;;;4.20;1.00;;;;;;5089825;28;20282;-78
2024/03/10 05:47:22;;;;;;;43.13;30.52;;;4.20;1.00;;;;;;5090439;28;20323;-77
2024/03/10 05:49:52;;;;;;;40.38;30.38;;;4.20;1.00;;;;;;5089280;28;20236;-77
2024/03/10 05:52:19;;;;;;;39.47;29.85;;;4.20;1.00;;;;;;5088888;28;20267;-77
2024/03/10 05:54:47;;;;;;;40.20;28.88;;;4.20;1.00;;;;;;5088558;28;20244;-78
2024/03/10 05:57:16;;;;;;;40.47;31.33;;;4.20;1.00;;;;;;5097502;28;20287;-77
2024/03/10 05:59:43;;;;;;;42.70;32.13;;;4.20;1.00;;;;;;5091021;28;20274;-78
2024/03/10 06:02:13;;;;;;;40.08;28.60;;;4.20;1.00;;;;;;5089231;28;20314;-77
2024/03/10 06:04:40;;;;;;;39.85;30.05;;;4.30;1.00;;;;;;5098210;27;20248;-78
2024/03/10 06:07:10;;;;;;;45.05;32.67;;;4.30;1.00;;;;;;5088597;28;20799;-78
2024/03/10 06:09:37;;;;;;;38.80;30.02;;;4.30;1.00;;;;;;5086414;28;20316;-77
2024/03/10 06:12:06;;;;;;;37.88;30.23;;;4.30;1.00;;;;;;5090807;28;20276;-77
2024/03/10 06:14:33;;;;;;;35.15;28.98;;;4.40;1.00;;;;;;5087243;28;20239;-77
2024/03/10 06:17:00;;;;;;;42.25;30.48;;;4.40;1.00;;;;;;5095824;27;20813;-78
2024/03/10 06:27:42;;;;;;;40.08;29.35;;;4.60;1.00;;;;;;5089159;27;20237;-77
2024/03/10 06:30:11;;;;;;;36.65;29.05;;;4.60;1.00;;;;;;5087621;28;20243;-79
2024/03/10 06:32:39;;;;;;;39.17;30.42;;;4.70;1.00;;;;;;5087230;28;20237;-78
2024/03/10 06:35:08;;;;;;;42.17;30.55;;;4.70;1.00;;;;;;5087196;28;21254;-78
2024/03/10 06:37:37;;;;;;;40.30;29.77;;;4.80;1.00;;;;;;5086499;28;20320;-78
2024/03/10 06:40:07;;;;;;;36.38;27.90;;;4.90;1.00;;;;;;5087548;28;20626;-79
2024/03/10 06:42:33;;;;;;;36.15;28.92;;;5.00;1.00;;;;;;5096931;27;20236;-78
2024/03/10 06:45:00;;;;;;;39.60;28.88;;;5.10;1.00;;;;;;5085629;28;20232;-81
2024/03/10 06:47:28;;;;;;;42.83;30.30;;;5.10;1.00;;;;;;5098152;27;20302;-78
2024/03/10 06:49:54;;;;;;;42.15;31.20;;;5.20;1.00;;;;;;5095344;27;20319;-77
2024/03/10 06:52:24;;;;;;;38.60;28.27;;;5.30;1.00;;;;;;5094907;27;20888;-79
2024/03/10 06:54:54;;;;;;;38.58;28.58;;;5.40;1.00;;;;;;5087187;28;20730;-79
2024/03/10 06:57:21;;;;;;;38.55;28.88;;;5.50;1.00;;;;;;5100091;27;20235;-79
2024/03/10 06:59:48;;;;;;;35.95;27.55;;;5.60;1.00;;;;;;5065483;28;20259;-76
2024/03/10 07:02:16;;;;;;;35.53;27.60;;;5.70;1.00;;;;;;5089976;27;20262;-79
2024/03/10 07:04:45;;;;;;;39.40;27.75;;;5.70;1.00;;;;;;5109546;27;20236;-80
2024/03/10 07:07:13;;;;;;;35.15;27.55;;;5.80;1.00;;;;;;5082900;28;20334;-80
2024/03/10 07:09:44;;;;;;;41.30;29.77;;;6.00;1.00;;;;;;5088446;28;20236;-79
2024/03/10 07:12:13;;;;;;;36.63;28.40;;;6.10;1.00;;;;;;5082409;28;20717;-79
2024/03/10 07:14:41;;;;;;;33.25;28.60;;;6.20;1.00;;;;;;5086802;28;20723;-79
2024/03/10 07:17:10;;;;;;;38.17;27.50;;;6.20;1.00;;;;;;5084885;28;20236;-77
2024/03/10 07:19:41;;;;;;;36.65;27.90;;;6.30;1.00;;;;;;5087158;28;20367;-78
2024/03/10 07:22:10;;;;;;;33.75;28.58;;;6.50;1.00;;;;;;5091470;27;20341;-77
2024/03/10 07:24:37;;;;;;;38.92;28.85;;;6.60;1.00;;;;;;5087839;27;20302;-81
2024/03/10 07:27:05;;;;;;;35.78;28.05;;;6.80;1.00;;;;;;5087378;28;20246;-81
2024/03/10 07:29:34;;;;;;;33.30;27.90;;;6.90;1.00;;;;;;5090006;28;20241;-79
2024/03/10 07:32:01;;;;;;;34.97;27.05;;;6.90;1.00;;;;;;5087924;28;21342;-81
2024/03/10 07:34:29;;;;;;;36.03;29.02;;;7.00;1.00;;;;;;5096146;27;20268;-79
2024/03/10 07:36:57;;;;;;;36.83;28.58;;;7.10;1.00;;;;;;5085715;28;20240;-80
2024/03/10 07:39:24;;;;;;;39.20;30.70;;;7.20;1.00;;;;;;5088312;28;20261;-78
2024/03/10 07:41:51;;;;;;;34.40;27.25;;;7.30;1.00;;;;;;5087175;28;20553;-80
2024/03/10 07:44:18;;;;;;;34.17;26.30;;;7.40;1.00;;;;;;5085338;28;20268;-79
2024/03/10 07:46:47;;;;;;;35.10;28.63;;;7.50;1.00;;;;;;5086494;28;20242;-81
2024/03/10 07:49:17;;;;;;;32.22;26.35;;;7.50;1.00;;;;;;5073871;28;20452;-80
2024/03/10 07:51:44;;;;;;;31.08;26.45;;;7.60;1.00;;;;;;5088581;28;20986;-81
2024/03/10 07:54:11;;;;;;;33.50;27.27;;;7.80;1.00;;;;;;5089044;28;20327;-77
2024/03/10 07:56:39;;;;;;;31.97;26.10;;;7.90;1.00;;;;;;5093083;27;20976;-78
2024/03/10 07:59:07;;;;;;;34.53;26.70;;;7.90;1.00;;;;;;5108619;27;21004;-80
2024/03/10 08:01:34;;;;;;;35.23;27.77;;;8.10;1.00;;;;;;5106821;27;20460;-81
2024/03/10 08:04:02;;;;;;;33.17;26.97;;;8.20;1.00;;;;;;5111012;27;20469;-82
2024/03/10 08:06:30;;;;;;;30.70;25.67;;;8.40;1.00;;;;;;5109562;27;20453;-81
2024/03/10 08:08:59;;;;;;;30.90;25.87;;;8.50;1.00;;;;;;5092137;28;20469;-80
2024/03/10 08:11:26;;;;;;;32.80;27.80;;;8.70;1.00;;;;;;5078878;28;20439;-81
2024/03/10 08:13:53;;;;;;;34.60;26.27;;;8.80;1.00;;;;;;5107387;27;20515;-80
2024/03/10 08:16:20;;;;;;;30.97;27.03;;;8.90;1.00;;;;;;5091290;28;20471;-82
2024/03/10 08:18:47;;;;;;;33.73;26.87;;;9.00;1.00;;;;;;5093252;28;20489;-79
2024/03/10 08:21:16;;;;;;;32.90;28.23;;;9.00;1.00;;;;;;5090444;28;20565;-81
2024/03/10 08:23:44;;;;;;;34.30;27.40;;;9.20;1.00;;;;;;5089659;28;20467;-75
2024/03/10 08:26:11;;;;;;;34.83;28.40;;;9.30;1.00;;;;;;5097862;27;20534;-82
2024/03/10 08:28:38;;;;;;;33.10;26.77;;;9.30;1.00;;;;;;5102490;27;20460;-84
2024/03/10 08:31:06;;;;;;;28.87;24.40;;;9.50;1.00;;;;;;5113745;27;20550;-81
2024/03/10 08:33:34;;;;;;;30.90;27.53;;;9.60;1.00;;;;;;5116138;27;20469;-79
2024/03/10 08:36:02;;;;;;;31.10;25.03;;;9.60;1.00;;;;;;5100688;27;20462;-79
2024/03/10 08:38:30;;;;;;;28.57;24.73;;;9.80;1.00;;;;;;5088764;28;21339;-81
2024/03/10 08:40:57;;;;;;;28.97;25.53;;;9.90;1.00;;;;;;5088127;28;20457;-77
2024/03/10 08:43:24;;;;;;;29.90;26.17;;;10.00;1.00;;;;;;5083734;27;20544;-78
2024/03/10 08:45:52;;;;;;;31.57;24.67;;;10.20;1.00;;;;;;5097194;27;20413;-80
2024/03/10 08:48:19;;;;;;;31.00;26.07;;;10.50;1.00;;;;;;5089037;28;20993;-79
2024/03/10 08:50:46;;;;;;;32.70;27.17;;;10.70;1.00;;;;;;5088498;28;20462;-78
2024/03/10 08:53:14;;;;;;;30.70;25.87;;;11.00;1.00;;;;;;5088061;28;20487;-80
2024/03/10 08:55:44;;;;;;;26.50;22.73;;;11.20;1.00;;;;;;5098915;27;20526;-79
2024/03/10 08:58:12;;;;;;;30.50;25.73;;;11.40;1.00;;;;;;5097457;27;20571;-79
2024/03/10 09:00:39;;;;;;;32.20;25.23;;;11.70;1.00;;;;;;5096352;28;21042;-82
2024/03/10 09:03:07;;;;;;;29.00;25.90;;;12.50;1.00;;;;;;5088603;28;20982;-80
2024/03/10 09:05:35;;;;;;;27.03;24.10;;;13.10;1.00;;;;;;5087754;28;20457;-76
2024/03/10 09:08:02;;;;;;;33.57;25.53;;;13.80;1.00;;;;;;5099280;27;20440;-76
2024/03/10 09:10:29;;;;;;;28.50;25.50;;;14.40;1.00;;;;;;5088727;28;20515;-80
2024/03/10 09:12:57;;;;;;;33.43;25.70;;;15.00;1.00;;;;;;5085748;28;20448;-80
2024/03/10 09:15:26;;;;;;;27.93;24.03;;;15.30;1.00;;;;;;5083799;28;21180;-77
2024/03/10 09:17:53;;;;;;;28.20;25.20;;;15.60;1.00;;;;;;5093431;27;20466;-79
2024/03/10 09:20:20;;;;;;;26.53;23.57;;;15.60;1.00;;;;;;5096016;27;20469;-78
2024/03/10 09:22:51;;;;;;;26.53;23.73;;;15.70;1.00;;;;;;5091538;27;21043;-81
2024/03/10 09:25:23;;;;;;;28.83;25.93;;;16.20;1.00;;;;;;5071971;28;20566;-82
2024/03/10 09:27:52;;;;;;;29.83;26.07;;;16.60;1.00;;;;;;5092389;28;20482;-80
2024/03/10 09:30:23;;;;;;;27.33;24.60;;;16.80;1.00;;;;;;5094406;27;20556;-78
2024/03/10 09:32:50;;;;;;;28.97;25.83;;;17.00;1.00;;;;;;5110198;27;20535;-78
2024/03/10 09:35:28;;;;;;;27.60;24.70;;;17.40;1.00;;;;;;5111746;27;20469;-80
2024/03/10 09:38:00;;;;;;;28.70;25.80;;;17.20;1.00;;;;;;5092480;28;20449;-81
2024/03/10 09:40:29;;;;;;;28.70;25.70;;;17.40;1.00;;;;;;5090870;28;20447;-81
2024/03/10 09:42:56;;;;;;;27.80;24.90;;;17.30;1.00;;;;;;5094108;27;20554;-80
2024/03/10 09:45:28;;;;;;;27.37;24.47;;;17.60;1.00;;;;;;5084075;28;20452;-79
2024/03/10 09:47:58;;;;;;;27.13;24.23;;;18.00;1.00;;;;;;5084733;27;20553;-79
2024/03/10 09:50:28;;;;;;;25.00;22.37;;;18.40;1.00;;;;;;5084129;28;20471;-80
2024/03/10 09:52:57;;;;;;;28.53;25.63;;;17.80;1.00;;;;;;5086630;28;20454;-77
2024/03/10 09:55:24;;;;;;;28.27;25.33;;;17.40;1.00;;;;;;5089281;28;20467;-80
2024/03/10 09:57:53;;;;;;;25.77;23.27;;;17.60;1.00;;;;;;5096479;27;20522;-80
2024/03/10 10:00:23;;;;;;;28.90;24.97;;;17.50;1.00;;;;;;5089881;27;20533;-80
2024/03/10 10:02:55;;;;;;;28.53;24.53;;;16.70;1.00;;;;;;5088112;27;20555;-82
2024/03/10 10:05:29;;;;;;;27.40;24.50;;;16.80;1.00;;;;;;5091291;28;20946;-81
2024/03/10 10:07:58;;;;;;;25.30;22.70;;;17.10;1.00;;;;;;5088395;28;20898;-78
2024/03/10 10:10:26;;;;;;;27.20;24.50;;;17.40;1.00;;;;;;5105711;27;20442;-80
2024/03/10 10:12:54;;;;;;;26.07;23.60;;;17.40;1.00;;;;;;5109390;27;20455;-79
2024/03/10 10:15:26;;;;;;;28.57;25.63;;;17.30;1.00;;;;;;5110515;27;20478;-80
2024/03/10 10:18:02;;;;;;;27.67;24.77;;;16.70;1.00;;;;;;5110184;27;21124;-83
2024/03/10 10:20:29;;;;;;;27.80;24.73;;;16.40;1.00;;;;;;5110835;27;20453;-81
2024/03/10 10:22:58;;;;;;;28.20;25.30;;;16.10;1.00;;;;;;5111511;27;20508;-76
2024/03/10 10:25:27;;;;;;;28.17;24.87;;;15.80;1.00;;;;;;5098076;27;20490;-81
2024/03/10 10:27:55;;;;;;;28.70;25.67;;;16.10;1.00;;;;;;5090967;28;20506;-80
2024/03/10 10:30:23;;;;;;;27.27;24.33;;;16.50;1.00;;;;;;5094317;28;20451;-75
2024/03/10 10:33:04;;;;;;;26.63;23.93;;;16.40;1.00;;;;;;5096453;27;20465;-75
2024/03/10 10:35:33;;;;;;;26.20;23.50;;;16.30;1.00;;;;;;5105803;27;20542;-73
2024/03/10 10:38:11;;;;;;;28.27;25.30;;;16.40;1.00;;;;;;5091750;28;20473;-75
2024/03/10 10:40:38;;;;;;;30.80;27.50;;;16.50;1.00;;;;;;5105798;27;20466;-76
2024/03/10 10:43:06;;;;;;;32.60;26.27;;;16.20;1.00;;;;;;5109777;27;20494;-73
2024/03/10 10:45:37;;;;;;;27.43;24.63;;;16.00;1.00;;;;;;5106982;27;20436;-73
2024/03/10 10:48:08;;;;;;;27.30;24.40;;;16.60;1.00;;;;;;5106546;27;20466;-72
2024/03/10 10:50:37;;;;;;;27.87;24.90;;;17.00;1.00;;;;;;5102858;27;20531;-73
2024/03/10 10:53:06;;;;;;;26.07;23.27;;;17.60;1.00;;;;;;5105065;27;20462;-78
2024/03/10 10:55:34;;;;;;;27.37;24.53;;;17.90;1.00;;;;;;5105124;27;20469;-74
2024/03/10 10:58:06;;;;;;;27.03;22.87;;;17.90;1.00;;;;;;5097014;27;20466;-73
2024/03/10 11:00:34;;;;;;;24.63;22.03;;;18.20;1.00;;;;;;5092594;27;20567;-72
2024/03/10 11:03:13;;;;;;;24.40;21.90;;;18.60;1.00;;;;;;5087178;28;20514;-74
2024/03/10 11:05:41;;;;;;;24.53;22.10;;;18.70;1.00;;;;;;5082315;28;21887;-73
2024/03/10 11:08:13;;;;;;;28.90;25.17;;;18.50;1.00;;;;;;5085130;28;20468;-72
2024/03/10 11:10:42;;;;;;;27.70;24.23;;;18.10;1.00;;;;;;5083248;27;21054;-72
2024/03/10 11:13:11;;;;;;;27.53;24.73;;;17.80;1.00;;;;;;5084329;27;20463;-71
2024/03/10 11:15:38;;;;;;;28.37;25.40;;;17.30;1.00;;;;;;5093065;27;20475;-74
2024/03/10 11:18:26;;;;;;;28.80;23.70;;;16.90;1.00;;;;;;5075363;28;21004;-70
2024/03/10 11:20:56;;;;;;;25.70;22.90;;;16.70;1.00;;;;;;5084973;28;20453;-76
2024/03/10 11:23:38;;;;;;;26.63;23.93;;;16.70;1.00;;;;;;5086486;28;20455;-73
2024/03/10 11:26:09;;;;;;;26.33;23.53;;;16.30;1.00;;;;;;5100300;27;20457;-72
2024/03/10 11:28:52;;;;;;;27.73;23.90;;;15.60;1.00;;;;;;5106755;27;20994;-74
2024/03/10 11:31:38;;;;;;;29.03;24.27;;;15.40;1.00;;;;;;5106907;27;20446;-74
2024/03/10 11:34:11;;;;;;;27.73;24.83;;;15.10;1.00;;;;;;5106153;27;20555;-71
2024/03/10 11:36:40;;;;;;;25.87;22.30;;;15.00;1.00;;;;;;5104987;27;20481;-74
2024/03/10 11:39:08;;;;;;;26.37;23.60;;;15.20;1.00;;;;;;5103064;27;20440;-77
2024/03/10 11:41:37;;;;;;;26.30;23.40;;;15.20;1.00;;;;;;5101909;27;21085;-74
2024/03/10 11:44:05;;;;;;;25.43;22.53;;;14.90;1.00;;;;;;5103003;27;21106;-74
2024/03/10 11:46:33;;;;;;;25.80;22.90;;;14.60;1.00;;;;;;5106836;27;20492;-76
2024/03/10 11:49:01;;;;;;;24.40;21.80;;;14.70;1.00;;;;;;5110592;27;20601;-77
2024/03/10 11:51:31;;;;;;;32.17;29.27;;;14.60;1.00;;;;;;5108767;27;20920;-74
2024/03/10 11:53:59;;;;;;;23.80;21.10;;;14.50;1.00;;;;;;5096161;27;20449;-74
2024/03/10 11:56:29;;;;;;;23.10;20.60;;;14.50;1.00;;;;;;5089405;27;20908;-73
2024/03/10 11:58:57;;;;;;;25.27;20.50;;;14.60;1.00;;;;;;5106585;27;20533;-75
2024/03/10 12:01:26;;;;;;;24.30;21.27;;;14.70;1.00;;;;;;5107184;27;20449;-73
2024/03/10 12:03:54;;;;;;;23.50;21.00;;;14.50;1.00;;;;;;5100442;27;20556;-74
2024/03/10 12:06:23;;;;;;;21.37;19.30;;;14.70;1.00;;;;;;5103650;27;20465;-74
2024/03/10 12:08:51;;;;;;;21.77;19.43;;;15.00;1.00;;;;;;5099714;27;20477;-73
2024/03/10 12:11:24;;;;;;;21.97;19.73;;;15.20;1.00;;;;;;5102559;27;20470;-73
2024/03/10 12:13:51;;;;;;;22.13;19.63;;;15.30;1.00;;;;;;5106826;27;20590;-73
2024/03/10 12:16:18;;;;;;;22.37;20.27;;;15.40;1.00;;;;;;5105156;27;20453;-72
2024/03/10 12:18:48;;;;;;;21.73;19.47;;;15.20;1.00;;;;;;5085160;27;20468;-75
2024/03/10 12:21:17;;;;;;;23.67;20.70;;;14.70;1.00;;;;;;5085071;28;21049;-72
2024/03/10 12:23:45;;;;;;;22.27;19.90;;;14.50;1.00;;;;;;5100369;27;20514;-73
2024/03/10 12:26:15;;;;;;;21.17;19.03;;;14.50;1.00;;;;;;5087671;28;20481;-73
2024/03/10 12:28:46;;;;;;;23.13;18.37;;;14.50;1.00;;;;;;5087256;28;21278;-73
2024/03/10 12:31:15;;;;;;;24.73;20.50;;;14.40;1.00;;;;;;5089115;28;20449;-73
2024/03/10 12:33:44;;;;;;;22.50;20.20;;;14.30;1.00;;;;;;5103135;27;20897;-74
2024/03/10 12:36:12;;;;;;;21.73;19.50;;;14.40;1.00;;;;;;5108585;27;20491;-73
2024/03/10 12:38:40;;;;;;;24.60;20.83;;;14.40;1.00;;;;;;5110641;27;20483;-74
2024/03/10 12:41:07;;;;;;;22.63;20.23;;;14.30;1.00;;;;;;5109327;27;20457;-74
2024/03/10 12:43:36;;;;;;;21.30;19.00;;;14.30;1.00;;;;;;5111177;27;20972;-75
2024/03/10 12:46:06;;;;;;;21.83;19.53;;;14.80;1.00;;;;;;5091790;28;20493;-74
2024/03/10 12:48:33;;;;;;;22.27;19.87;;;15.10;1.00;;;;;;5095437;27;20545;-74
2024/03/10 12:51:00;;;;;;;21.33;19.03;;;15.10;1.00;;;;;;5093378;28;20418;-79
2024/03/10 12:53:30;;;;;;;24.77;19.70;;;15.00;1.00;;;;;;5089073;27;20449;-80
2024/03/10 12:55:58;;;;;;;21.60;18.40;;;14.90;1.00;;;;;;5108928;27;20457;-77
2024/03/10 12:58:25;;;;;;;21.17;18.97;;;14.70;1.00;;;;;;5098959;27;20468;-79
2024/03/10 13:00:54;;;;;;;24.40;22.00;;;14.50;1.00;;;;;;5094095;27;20457;-79
2024/03/10 13:03:21;;;;;;;21.63;19.37;;;14.40;1.00;;;;;;5090964;28;20556;-79
2024/03/10 13:05:47;;;;;;;20.97;17.73;;;14.30;1.00;;;;;;5092326;28;20461;-79
2024/03/10 13:08:14;;;;;;;22.23;18.07;;;14.20;1.00;;;;;;5103511;27;21184;-80
2024/03/10 13:10:42;;;;;;;19.57;17.60;;;14.20;1.00;;;;;;5095880;27;20612;-79